Terminal Aerodrome Forecast
Issued by NWS Jackson, MS

Home | Current Version | Previous Version | Text Only | Print | Product List | Glossary On
Versions: 1 2 3 4 5 6 7 8 9 10 11 12 13 14 15 16 17
720
FTUS44 KJAN 220559
TAFHBG
TAF
KHBG 220559Z 2206/2306 00000KT 2SM BR BKN001
     FM220900 00000KT 1/2SM FG VV001
     FM221500 33005KT 4SM BR OVC015
     FM221800 34007KT P6SM BKN025
     FM222100 33006KT P6SM SCT030=

USA.gov is the U.S. government's official web portal to all federal, state and local government web resources and services.